Terminal Aerodrome Forecast
Issued by NWS

Home | Current Version | Previous Version | Text Only | Print | Product List | Glossary On
Versions: 1 2 3 4 5 6 7 8 9 10 11 12
000
FTUS45 KRIW 310500
TAFBPI
TAF
KBPI 310537Z 3106/0106 VRB09KT P6SM VCTS SCT070CB BKN100
     FM311100 34007KT P6SM SCT070 BKN120
     FM311700 29014G24KT P6SM SCT070
     FM010000 34009KT P6SM FEW080=

USA.gov is the U.S. government's official web portal to all federal, state and local government web resources and services.